sensor_id;sensor_type;location;lat;lon;timestamp;P1;durP1;ratioP1;P2;durP2;ratioP2
18544;SDS011;9402;51.460;7.276;2022-12-18T00:01:44;50.85;;;20.20;;
18544;SDS011;9402;51.460;7.276;2022-12-18T00:03:48;58.10;;;22.25;;
18544;SDS011;9402;51.460;7.276;2022-12-18T00:05:52;51.47;;;20.52;;
18544;SDS011;9402;51.460;7.276;2022-12-18T00:07:55;55.80;;;20.98;;
18544;SDS011;9402;51.460;7.276;2022-12-18T00:09:57;61.80;;;19.27;;
18544;SDS011;9402;51.460;7.276;2022-12-18T00:11:59;48.85;;;18.35;;
18544;SDS011;9402;51.460;7.276;2022-12-18T00:14:02;47.05;;;18.25;;
18544;SDS011;9402;51.460;7.276;2022-12-18T00:16:05;53.30;;;21.02;;
18544;SDS011;9402;51.460;7.276;2022-12-18T00:18:09;54.20;;;19.77;;
18544;SDS011;9402;51.460;7.276;2022-12-18T00:20:12;55.13;;;18.20;;
18544;SDS011;9402;51.460;7.276;2022-12-18T00:22:15;58.88;;;19.35;;
18544;SDS011;9402;51.460;7.276;2022-12-18T00:24:18;47.50;;;18.38;;
18544;SDS011;9402;51.460;7.276;2022-12-18T00:26:21;46.20;;;16.83;;
18544;SDS011;9402;51.460;7.276;2022-12-18T00:28:25;53.85;;;17.38;;
18544;SDS011;9402;51.460;7.276;2022-12-18T00:30:28;41.75;;;17.65;;
18544;SDS011;9402;51.460;7.276;2022-12-18T00:32:32;51.13;;;18.55;;
18544;SDS011;9402;51.460;7.276;2022-12-18T00:34:34;54.30;;;19.92;;
18544;SDS011;9402;51.460;7.276;2022-12-18T00:36:37;44.17;;;17.50;;
18544;SDS011;9402;51.460;7.276;2022-12-18T00:38:41;43.95;;;15.75;;
18544;SDS011;9402;51.460;7.276;2022-12-18T00:40:44;41.60;;;15.10;;
18544;SDS011;9402;51.460;7.276;2022-12-18T00:42:46;42.72;;;18.92;;
18544;SDS011;9402;51.460;7.276;2022-12-18T00:44:56;45.22;;;16.85;;
18544;SDS011;9402;51.460;7.276;2022-12-18T00:46:59;45.38;;;17.80;;
18544;SDS011;9402;51.460;7.276;2022-12-18T00:49:01;46.78;;;16.95;;
18544;SDS011;9402;51.460;7.276;2022-12-18T00:51:04;49.03;;;17.35;;
18544;SDS011;9402;51.460;7.276;2022-12-18T00:53:08;47.15;;;16.30;;
18544;SDS011;9402;51.460;7.276;2022-12-18T00:55:12;41.78;;;17.40;;
18544;SDS011;9402;51.460;7.276;2022-12-18T00:57:15;50.05;;;18.05;;
18544;SDS011;9402;51.460;7.276;2022-12-18T00:59:18;45.38;;;18.58;;
18544;SDS011;9402;51.460;7.276;2022-12-18T01:01:20;56.95;;;18.65;;
18544;SDS011;9402;51.460;7.276;2022-12-18T01:03:23;40.40;;;16.88;;
18544;SDS011;9402;51.460;7.276;2022-12-18T01:05:25;50.08;;;18.55;;
18544;SDS011;9402;51.460;7.276;2022-12-18T01:07:28;54.20;;;19.40;;
18544;SDS011;9402;51.460;7.276;2022-12-18T01:09:30;56.10;;;21.52;;
18544;SDS011;9402;51.460;7.276;2022-12-18T01:11:34;54.20;;;19.02;;
18544;SDS011;9402;51.460;7.276;2022-12-18T01:13:36;48.60;;;16.05;;
18544;SDS011;9402;51.460;7.276;2022-12-18T01:15:39;60.80;;;19.33;;
18544;SDS011;9402;51.460;7.276;2022-12-18T01:17:41;63.13;;;20.55;;
18544;SDS011;9402;51.460;7.276;2022-12-18T01:19:44;49.25;;;18.38;;
18544;SDS011;9402;51.460;7.276;2022-12-18T01:21:46;45.90;;;17.02;;
18544;SDS011;9402;51.460;7.276;2022-12-18T01:23:50;54.03;;;18.77;;
18544;SDS011;9402;51.460;7.276;2022-12-18T01:25:53;43.67;;;17.70;;
18544;SDS011;9402;51.460;7.276;2022-12-18T01:27:57;45.60;;;18.58;;
18544;SDS011;9402;51.460;7.276;2022-12-18T01:29:59;57.47;;;22.17;;
18544;SDS011;9402;51.460;7.276;2022-12-18T01:32:02;53.33;;;23.55;;
18544;SDS011;9402;51.460;7.276;2022-12-18T01:34:05;60.05;;;21.38;;
18544;SDS011;9402;51.460;7.276;2022-12-18T01:36:08;51.88;;;21.90;;
18544;SDS011;9402;51.460;7.276;2022-12-18T01:38:15;66.03;;;21.00;;
18544;SDS011;9402;51.460;7.276;2022-12-18T01:40:17;43.50;;;18.73;;
18544;SDS011;9402;51.460;7.276;2022-12-18T01:42:20;46.47;;;17.48;;
18544;SDS011;9402;51.460;7.276;2022-12-18T01:46:58;54.28;;;18.38;;
18544;SDS011;9402;51.460;7.276;2022-12-18T01:49:01;62.28;;;20.50;;
18544;SDS011;9402;51.460;7.276;2022-12-18T01:51:03;41.75;;;16.65;;
18544;SDS011;9402;51.460;7.276;2022-12-18T01:53:07;46.47;;;19.35;;
18544;SDS011;9402;51.460;7.276;2022-12-18T01:55:12;42.33;;;17.60;;
18544;SDS011;9402;51.460;7.276;2022-12-18T01:57:17;50.60;;;16.55;;
18544;SDS011;9402;51.460;7.276;2022-12-18T01:59:20;37.58;;;14.45;;
18544;SDS011;9402;51.460;7.276;2022-12-18T02:01:24;50.03;;;17.30;;
18544;SDS011;9402;51.460;7.276;2022-12-18T02:03:26;42.55;;;17.00;;
18544;SDS011;9402;51.460;7.276;2022-12-18T02:05:33;44.00;;;16.60;;
18544;SDS011;9402;51.460;7.276;2022-12-18T02:07:42;41.88;;;16.30;;
18544;SDS011;9402;51.460;7.276;2022-12-18T02:09:48;50.17;;;16.02;;
18544;SDS011;9402;51.460;7.276;2022-12-18T02:11:56;44.85;;;17.90;;
18544;SDS011;9402;51.460;7.276;2022-12-18T02:14:04;45.15;;;16.85;;
18544;SDS011;9402;51.460;7.276;2022-12-18T02:16:17;44.08;;;15.30;;
18544;SDS011;9402;51.460;7.276;2022-12-18T02:18:25;49.72;;;19.10;;
18544;SDS011;9402;51.460;7.276;2022-12-18T02:20:32;40.28;;;17.42;;
18544;SDS011;9402;51.460;7.276;2022-12-18T02:22:39;46.28;;;17.08;;
18544;SDS011;9402;51.460;7.276;2022-12-18T02:24:48;41.53;;;15.13;;
18544;SDS011;9402;51.460;7.276;2022-12-18T02:26:59;34.05;;;14.45;;
18544;SDS011;9402;51.460;7.276;2022-12-18T02:29:05;43.15;;;14.70;;
18544;SDS011;9402;51.460;7.276;2022-12-18T02:31:11;40.00;;;15.95;;
18544;SDS011;9402;51.460;7.276;2022-12-18T02:33:15;39.40;;;16.95;;
18544;SDS011;9402;51.460;7.276;2022-12-18T02:35:19;35.72;;;16.52;;
18544;SDS011;9402;51.460;7.276;2022-12-18T02:37:23;33.35;;;13.20;;
18544;SDS011;9402;51.460;7.276;2022-12-18T02:39:27;32.90;;;12.13;;
18544;SDS011;9402;51.460;7.276;2022-12-18T02:41:31;36.90;;;13.73;;
18544;SDS011;9402;51.460;7.276;2022-12-18T02:43:35;25.67;;;10.32;;
18544;SDS011;9402;51.460;7.276;2022-12-18T02:45:45;27.30;;;11.57;;
18544;SDS011;9402;51.460;7.276;2022-12-18T02:47:49;34.55;;;11.68;;
18544;SDS011;9402;51.460;7.276;2022-12-18T02:49:53;29.45;;;9.50;;
18544;SDS011;9402;51.460;7.276;2022-12-18T02:52:01;32.35;;;9.88;;
18544;SDS011;9402;51.460;7.276;2022-12-18T02:54:09;16.50;;;6.57;;
18544;SDS011;9402;51.460;7.276;2022-12-18T02:56:15;13.35;;;5.97;;
18544;SDS011;9402;51.460;7.276;2022-12-18T02:58:20;10.45;;;4.25;;
18544;SDS011;9402;51.460;7.276;2022-12-18T03:00:31;6.25;;;2.92;;
18544;SDS011;9402;51.460;7.276;2022-12-18T03:02:38;3.55;;;2.13;;
18544;SDS011;9402;51.460;7.276;2022-12-18T03:04:44;2.50;;;1.55;;
18544;SDS011;9402;51.460;7.276;2022-12-18T03:06:49;9.32;;;2.42;;
18544;SDS011;9402;51.460;7.276;2022-12-18T03:08:54;8.23;;;3.15;;
18544;SDS011;9402;51.460;7.276;2022-12-18T03:11:01;7.07;;;2.95;;
18544;SDS011;9402;51.460;7.276;2022-12-18T03:13:05;5.68;;;2.30;;
18544;SDS011;9402;51.460;7.276;2022-12-18T03:15:08;5.43;;;2.40;;
18544;SDS011;9402;51.460;7.276;2022-12-18T03:17:16;4.30;;;1.70;;
18544;SDS011;9402;51.460;7.276;2022-12-18T03:19:20;5.70;;;3.00;;
18544;SDS011;9402;51.460;7.276;2022-12-18T03:21:26;6.47;;;2.00;;
18544;SDS011;9402;51.460;7.276;2022-12-18T03:23:32;4.30;;;1.90;;
18544;SDS011;9402;51.460;7.276;2022-12-18T03:25:37;4.32;;;2.38;;
18544;SDS011;9402;51.460;7.276;2022-12-18T03:27:42;5.18;;;2.65;;
18544;SDS011;9402;51.460;7.276;2022-12-18T03:29:48;7.40;;;2.10;;
18544;SDS011;9402;51.460;7.276;2022-12-18T03:31:53;7.20;;;2.78;;
18544;SDS011;9402;51.460;7.276;2022-12-18T03:33:59;4.20;;;2.67;;
18544;SDS011;9402;51.460;7.276;2022-12-18T03:36:03;4.15;;;1.95;;
18544;SDS011;9402;51.460;7.276;2022-12-18T03:38:06;3.90;;;2.50;;
18544;SDS011;9402;51.460;7.276;2022-12-18T03:40:09;21.67;;;8.05;;
18544;SDS011;9402;51.460;7.276;2022-12-18T03:42:13;35.35;;;13.52;;
18544;SDS011;9402;51.460;7.276;2022-12-18T03:44:20;35.17;;;14.30;;
18544;SDS011;9402;51.460;7.276;2022-12-18T03:46:28;45.38;;;18.90;;
18544;SDS011;9402;51.460;7.276;2022-12-18T03:48:36;35.08;;;16.45;;
18544;SDS011;9402;51.460;7.276;2022-12-18T03:50:45;40.97;;;16.85;;
18544;SDS011;9402;51.460;7.276;2022-12-18T03:52:51;42.55;;;15.27;;
18544;SDS011;9402;51.460;7.276;2022-12-18T03:54:57;39.35;;;15.32;;
18544;SDS011;9402;51.460;7.276;2022-12-18T03:57:01;36.45;;;14.38;;
18544;SDS011;9402;51.460;7.276;2022-12-18T03:59:07;34.10;;;14.23;;
18544;SDS011;9402;51.460;7.276;2022-12-18T04:01:13;33.75;;;13.68;;
18544;SDS011;9402;51.460;7.276;2022-12-18T04:03:17;38.33;;;15.75;;
18544;SDS011;9402;51.460;7.276;2022-12-18T04:05:21;35.95;;;14.80;;
18544;SDS011;9402;51.460;7.276;2022-12-18T04:07:27;44.95;;;17.73;;
18544;SDS011;9402;51.460;7.276;2022-12-18T04:09:30;37.88;;;16.15;;
18544;SDS011;9402;51.460;7.276;2022-12-18T04:11:33;43.25;;;16.00;;
18544;SDS011;9402;51.460;7.276;2022-12-18T04:13:36;46.60;;;17.17;;
18544;SDS011;9402;51.460;7.276;2022-12-18T04:15:39;40.72;;;17.17;;
18544;SDS011;9402;51.460;7.276;2022-12-18T04:17:43;43.55;;;17.60;;
18544;SDS011;9402;51.460;7.276;2022-12-18T04:19:49;45.75;;;17.20;;
18544;SDS011;9402;51.460;7.276;2022-12-18T04:21:51;40.03;;;18.05;;
18544;SDS011;9402;51.460;7.276;2022-12-18T04:23:55;40.55;;;16.15;;
18544;SDS011;9402;51.460;7.276;2022-12-18T04:25:58;37.03;;;17.67;;
18544;SDS011;9402;51.460;7.276;2022-12-18T04:28:00;43.75;;;16.50;;
18544;SDS011;9402;51.460;7.276;2022-12-18T04:30:03;41.97;;;16.77;;
18544;SDS011;9402;51.460;7.276;2022-12-18T04:32:06;46.28;;;18.17;;
18544;SDS011;9402;51.460;7.276;2022-12-18T04:34:09;39.00;;;15.52;;
18544;SDS011;9402;51.460;7.276;2022-12-18T04:36:11;43.40;;;15.73;;
18544;SDS011;9402;51.460;7.276;2022-12-18T04:38:13;43.30;;;16.02;;
18544;SDS011;9402;51.460;7.276;2022-12-18T04:40:17;35.58;;;14.82;;
18544;SDS011;9402;51.460;7.276;2022-12-18T04:42:20;42.85;;;15.85;;
18544;SDS011;9402;51.460;7.276;2022-12-18T04:44:22;41.83;;;19.08;;
18544;SDS011;9402;51.460;7.276;2022-12-18T04:46:24;43.15;;;16.83;;
18544;SDS011;9402;51.460;7.276;2022-12-18T04:48:27;48.25;;;18.95;;
18544;SDS011;9402;51.460;7.276;2022-12-18T04:50:29;51.67;;;19.58;;
18544;SDS011;9402;51.460;7.276;2022-12-18T04:52:32;50.60;;;19.90;;
18544;SDS011;9402;51.460;7.276;2022-12-18T04:54:34;53.15;;;17.88;;
18544;SDS011;9402;51.460;7.276;2022-12-18T04:56:38;44.10;;;17.55;;
18544;SDS011;9402;51.460;7.276;2022-12-18T04:58:41;39.85;;;16.40;;
18544;SDS011;9402;51.460;7.276;2022-12-18T05:00:44;40.85;;;16.00;;
18544;SDS011;9402;51.460;7.276;2022-12-18T05:02:47;42.05;;;16.70;;
18544;SDS011;9402;51.460;7.276;2022-12-18T05:04:49;39.38;;;15.48;;
18544;SDS011;9402;51.460;7.276;2022-12-18T05:06:52;35.05;;;14.43;;
18544;SDS011;9402;51.460;7.276;2022-12-18T05:08:54;47.92;;;17.80;;
18544;SDS011;9402;51.460;7.276;2022-12-18T05:11:00;50.75;;;19.75;;
18544;SDS011;9402;51.460;7.276;2022-12-18T05:13:04;39.47;;;15.65;;
18544;SDS011;9402;51.460;7.276;2022-12-18T05:15:07;39.72;;;16.10;;
18544;SDS011;9402;51.460;7.276;2022-12-18T05:17:10;49.08;;;16.52;;
18544;SDS011;9402;51.460;7.276;2022-12-18T05:19:12;37.58;;;15.75;;
18544;SDS011;9402;51.460;7.276;2022-12-18T05:21:14;45.60;;;17.80;;
18544;SDS011;9402;51.460;7.276;2022-12-18T05:23:17;42.88;;;17.02;;
18544;SDS011;9402;51.460;7.276;2022-12-18T05:25:20;40.40;;;16.88;;
18544;SDS011;9402;51.460;7.276;2022-12-18T05:27:22;42.65;;;15.32;;
18544;SDS011;9402;51.460;7.276;2022-12-18T05:29:26;34.47;;;15.32;;
18544;SDS011;9402;51.460;7.276;2022-12-18T05:31:29;38.88;;;16.30;;
18544;SDS011;9402;51.460;7.276;2022-12-18T05:33:32;42.25;;;15.82;;
18544;SDS011;9402;51.460;7.276;2022-12-18T05:35:35;45.42;;;15.98;;
18544;SDS011;9402;51.460;7.276;2022-12-18T05:37:37;38.55;;;14.90;;
18544;SDS011;9402;51.460;7.276;2022-12-18T05:39:40;36.50;;;15.07;;
18544;SDS011;9402;51.460;7.276;2022-12-18T05:41:42;46.03;;;15.38;;
18544;SDS011;9402;51.460;7.276;2022-12-18T05:43:44;34.72;;;13.35;;
18544;SDS011;9402;51.460;7.276;2022-12-18T05:45:48;39.45;;;14.45;;
18544;SDS011;9402;51.460;7.276;2022-12-18T05:47:51;46.58;;;16.95;;
18544;SDS011;9402;51.460;7.276;2022-12-18T05:49:53;39.25;;;17.15;;
18544;SDS011;9402;51.460;7.276;2022-12-18T05:51:56;34.42;;;15.10;;
18544;SDS011;9402;51.460;7.276;2022-12-18T05:53:58;33.60;;;14.02;;
18544;SDS011;9402;51.460;7.276;2022-12-18T05:56:00;33.90;;;15.05;;
18544;SDS011;9402;51.460;7.276;2022-12-18T05:58:04;35.05;;;15.07;;
18544;SDS011;9402;51.460;7.276;2022-12-18T06:00:07;50.00;;;17.75;;
18544;SDS011;9402;51.460;7.276;2022-12-18T06:02:12;44.83;;;16.52;;
18544;SDS011;9402;51.460;7.276;2022-12-18T06:04:15;39.28;;;15.38;;
18544;SDS011;9402;51.460;7.276;2022-12-18T06:06:18;37.03;;;14.00;;
18544;SDS011;9402;51.460;7.276;2022-12-18T06:08:22;45.13;;;17.52;;
18544;SDS011;9402;51.460;7.276;2022-12-18T06:10:24;42.97;;;14.05;;
18544;SDS011;9402;51.460;7.276;2022-12-18T06:12:26;38.88;;;16.48;;
18544;SDS011;9402;51.460;7.276;2022-12-18T06:14:29;41.97;;;14.63;;
18544;SDS011;9402;51.460;7.276;2022-12-18T06:16:31;42.30;;;16.25;;
18544;SDS011;9402;51.460;7.276;2022-12-18T06:18:35;26.45;;;12.93;;
18544;SDS011;9402;51.460;7.276;2022-12-18T06:20:37;31.90;;;15.30;;
18544;SDS011;9402;51.460;7.276;2022-12-18T06:22:41;37.20;;;14.80;;
18544;SDS011;9402;51.460;7.276;2022-12-18T06:24:43;35.08;;;14.70;;
18544;SDS011;9402;51.460;7.276;2022-12-18T06:26:46;39.92;;;14.98;;
18544;SDS011;9402;51.460;7.276;2022-12-18T06:28:48;32.90;;;12.60;;
18544;SDS011;9402;51.460;7.276;2022-12-18T06:30:50;35.40;;;14.52;;
18544;SDS011;9402;51.460;7.276;2022-12-18T06:32:53;31.05;;;13.55;;
18544;SDS011;9402;51.460;7.276;2022-12-18T06:34:57;42.83;;;14.95;;
18544;SDS011;9402;51.460;7.276;2022-12-18T06:37:00;38.72;;;13.82;;
18544;SDS011;9402;51.460;7.276;2022-12-18T06:39:02;34.80;;;13.25;;
18544;SDS011;9402;51.460;7.276;2022-12-18T06:41:06;60.53;;;19.17;;
18544;SDS011;9402;51.460;7.276;2022-12-18T06:43:09;91.03;;;27.38;;
18544;SDS011;9402;51.460;7.276;2022-12-18T06:45:11;68.82;;;23.48;;
18544;SDS011;9402;51.460;7.276;2022-12-18T06:47:16;56.40;;;18.85;;
18544;SDS011;9402;51.460;7.276;2022-12-18T06:49:19;55.15;;;18.42;;
18544;SDS011;9402;51.460;7.276;2022-12-18T06:51:24;47.85;;;18.33;;
18544;SDS011;9402;51.460;7.276;2022-12-18T06:53:27;48.80;;;16.25;;
18544;SDS011;9402;51.460;7.276;2022-12-18T06:55:29;47.13;;;16.58;;
18544;SDS011;9402;51.460;7.276;2022-12-18T06:57:32;52.75;;;16.45;;
18544;SDS011;9402;51.460;7.276;2022-12-18T06:59:34;44.10;;;16.20;;
18544;SDS011;9402;51.460;7.276;2022-12-18T07:01:36;40.88;;;14.80;;
18544;SDS011;9402;51.460;7.276;2022-12-18T07:03:39;43.45;;;14.77;;
18544;SDS011;9402;51.460;7.276;2022-12-18T07:05:42;35.15;;;13.93;;
18544;SDS011;9402;51.460;7.276;2022-12-18T07:07:46;38.63;;;12.02;;
18544;SDS011;9402;51.460;7.276;2022-12-18T07:09:49;37.83;;;14.70;;
18544;SDS011;9402;51.460;7.276;2022-12-18T07:11:51;38.67;;;12.07;;
18544;SDS011;9402;51.460;7.276;2022-12-18T07:13:53;33.47;;;12.50;;
18544;SDS011;9402;51.460;7.276;2022-12-18T07:16:02;29.40;;;12.18;;
18544;SDS011;9402;51.460;7.276;2022-12-18T07:18:05;37.42;;;14.60;;
18544;SDS011;9402;51.460;7.276;2022-12-18T07:20:08;29.23;;;11.43;;
18544;SDS011;9402;51.460;7.276;2022-12-18T07:22:11;39.90;;;15.18;;
18544;SDS011;9402;51.460;7.276;2022-12-18T07:24:15;37.17;;;15.00;;
18544;SDS011;9402;51.460;7.276;2022-12-18T07:26:18;34.10;;;12.95;;
18544;SDS011;9402;51.460;7.276;2022-12-18T07:28:21;35.63;;;12.93;;
18544;SDS011;9402;51.460;7.276;2022-12-18T07:30:23;26.77;;;11.82;;
18544;SDS011;9402;51.460;7.276;2022-12-18T07:32:26;32.78;;;14.60;;
18544;SDS011;9402;51.460;7.276;2022-12-18T07:34:29;32.40;;;13.50;;
18544;SDS011;9402;51.460;7.276;2022-12-18T07:36:31;26.73;;;12.15;;
18544;SDS011;9402;51.460;7.276;2022-12-18T07:38:33;38.45;;;13.85;;
18544;SDS011;9402;51.460;7.276;2022-12-18T07:40:38;30.70;;;13.30;;
18544;SDS011;9402;51.460;7.276;2022-12-18T07:42:40;30.42;;;12.50;;
18544;SDS011;9402;51.460;7.276;2022-12-18T07:44:42;30.63;;;12.07;;
18544;SDS011;9402;51.460;7.276;2022-12-18T07:46:45;31.85;;;12.63;;
18544;SDS011;9402;51.460;7.276;2022-12-18T07:48:47;40.10;;;14.60;;
18544;SDS011;9402;51.460;7.276;2022-12-18T07:50:49;37.70;;;12.65;;
18544;SDS011;9402;51.460;7.276;2022-12-18T07:52:52;37.95;;;12.13;;
18544;SDS011;9402;51.460;7.276;2022-12-18T07:54:54;30.85;;;12.82;;
18544;SDS011;9402;51.460;7.276;2022-12-18T07:56:58;34.80;;;12.55;;
18544;SDS011;9402;51.460;7.276;2022-12-18T07:59:01;34.97;;;13.15;;
18544;SDS011;9402;51.460;7.276;2022-12-18T08:01:04;32.95;;;13.00;;
18544;SDS011;9402;51.460;7.276;2022-12-18T08:03:07;26.13;;;11.48;;
18544;SDS011;9402;51.460;7.276;2022-12-18T08:05:09;30.75;;;13.57;;
18544;SDS011;9402;51.460;7.276;2022-12-18T08:07:12;32.97;;;12.40;;
18544;SDS011;9402;51.460;7.276;2022-12-18T08:09:15;27.42;;;12.20;;
18544;SDS011;9402;51.460;7.276;2022-12-18T08:11:17;25.17;;;11.73;;
18544;SDS011;9402;51.460;7.276;2022-12-18T08:13:21;43.60;;;11.70;;
18544;SDS011;9402;51.460;7.276;2022-12-18T08:15:23;27.20;;;12.07;;
18544;SDS011;9402;51.460;7.276;2022-12-18T08:17:26;31.75;;;12.35;;
18544;SDS011;9402;51.460;7.276;2022-12-18T08:19:28;27.67;;;12.07;;
18544;SDS011;9402;51.460;7.276;2022-12-18T08:21:31;28.05;;;11.90;;
18544;SDS011;9402;51.460;7.276;2022-12-18T08:23:33;32.15;;;11.35;;
18544;SDS011;9402;51.460;7.276;2022-12-18T08:25:36;26.15;;;12.02;;
18544;SDS011;9402;51.460;7.276;2022-12-18T08:27:38;27.95;;;12.18;;
18544;SDS011;9402;51.460;7.276;2022-12-18T08:29:42;34.20;;;13.05;;
18544;SDS011;9402;51.460;7.276;2022-12-18T08:31:44;30.92;;;13.10;;
18544;SDS011;9402;51.460;7.276;2022-12-18T08:33:47;35.13;;;12.68;;
18544;SDS011;9402;51.460;7.276;2022-12-18T08:35:50;48.75;;;14.32;;
18544;SDS011;9402;51.460;7.276;2022-12-18T08:37:53;36.47;;;14.30;;
18544;SDS011;9402;51.460;7.276;2022-12-18T08:39:55;45.03;;;16.50;;
18544;SDS011;9402;51.460;7.276;2022-12-18T08:41:57;40.90;;;16.95;;
18544;SDS011;9402;51.460;7.276;2022-12-18T08:44:17;43.33;;;14.20;;
18544;SDS011;9402;51.460;7.276;2022-12-18T08:46:40;41.28;;;13.55;;
18544;SDS011;9402;51.460;7.276;2022-12-18T08:48:44;39.17;;;14.35;;
18544;SDS011;9402;51.460;7.276;2022-12-18T08:50:53;29.27;;;11.20;;
18544;SDS011;9402;51.460;7.276;2022-12-18T08:52:56;34.42;;;11.35;;
18544;SDS011;9402;51.460;7.276;2022-12-18T08:54:58;30.85;;;11.25;;
18544;SDS011;9402;51.460;7.276;2022-12-18T08:57:01;34.70;;;13.75;;
18544;SDS011;9402;51.460;7.276;2022-12-18T08:59:03;43.65;;;16.25;;
18544;SDS011;9402;51.460;7.276;2022-12-18T09:01:08;41.90;;;16.10;;
18544;SDS011;9402;51.460;7.276;2022-12-18T09:03:13;54.40;;;16.92;;
18544;SDS011;9402;51.460;7.276;2022-12-18T09:05:16;49.20;;;17.38;;
18544;SDS011;9402;51.460;7.276;2022-12-18T09:07:18;45.50;;;18.95;;
18544;SDS011;9402;51.460;7.276;2022-12-18T09:09:21;42.38;;;17.52;;
18544;SDS011;9402;51.460;7.276;2022-12-18T09:11:25;50.58;;;17.52;;
18544;SDS011;9402;51.460;7.276;2022-12-18T09:13:28;40.30;;;14.68;;
18544;SDS011;9402;51.460;7.276;2022-12-18T09:15:30;34.95;;;15.15;;
18544;SDS011;9402;51.460;7.276;2022-12-18T09:17:33;44.92;;;14.82;;
18544;SDS011;9402;51.460;7.276;2022-12-18T09:19:37;34.22;;;12.43;;
18544;SDS011;9402;51.460;7.276;2022-12-18T09:21:39;51.03;;;14.82;;
18544;SDS011;9402;51.460;7.276;2022-12-18T09:23:41;38.92;;;15.15;;
18544;SDS011;9402;51.460;7.276;2022-12-18T09:25:44;38.42;;;14.80;;
18544;SDS011;9402;51.460;7.276;2022-12-18T09:27:47;40.63;;;13.80;;
18544;SDS011;9402;51.460;7.276;2022-12-18T09:29:49;30.40;;;11.75;;
18544;SDS011;9402;51.460;7.276;2022-12-18T09:31:52;20.77;;;9.77;;
18544;SDS011;9402;51.460;7.276;2022-12-18T09:33:54;10.82;;;4.55;;
18544;SDS011;9402;51.460;7.276;2022-12-18T09:36:00;5.78;;;3.53;;
18544;SDS011;9402;51.460;7.276;2022-12-18T09:38:03;5.57;;;2.50;;
18544;SDS011;9402;51.460;7.276;2022-12-18T09:40:06;6.78;;;3.75;;
18544;SDS011;9402;51.460;7.276;2022-12-18T09:42:15;2.63;;;1.58;;
18544;SDS011;9402;51.460;7.276;2022-12-18T09:44:25;4.85;;;1.85;;
18544;SDS011;9402;51.460;7.276;2022-12-18T09:46:30;3.47;;;1.70;;
18544;SDS011;9402;51.460;7.276;2022-12-18T09:48:35;2.08;;;1.23;;
18544;SDS011;9402;51.460;7.276;2022-12-18T09:50:39;5.03;;;1.58;;
18544;SDS011;9402;51.460;7.276;2022-12-18T09:52:44;3.60;;;2.05;;
18544;SDS011;9402;51.460;7.276;2022-12-18T09:54:49;2.05;;;1.45;;
18544;SDS011;9402;51.460;7.276;2022-12-18T09:56:53;3.35;;;1.30;;
18544;SDS011;9402;51.460;7.276;2022-12-18T09:58:57;2.63;;;1.17;;
18544;SDS011;9402;51.460;7.276;2022-12-18T10:01:00;3.35;;;1.48;;
18544;SDS011;9402;51.460;7.276;2022-12-18T10:03:03;2.88;;;1.45;;
18544;SDS011;9402;51.460;7.276;2022-12-18T10:05:12;2.67;;;1.63;;
18544;SDS011;9402;51.460;7.276;2022-12-18T10:07:16;3.20;;;1.50;;
18544;SDS011;9402;51.460;7.276;2022-12-18T10:09:27;2.60;;;1.52;;
18544;SDS011;9402;51.460;7.276;2022-12-18T10:11:34;5.82;;;1.98;;
18544;SDS011;9402;51.460;7.276;2022-12-18T10:13:42;4.82;;;2.10;;
18544;SDS011;9402;51.460;7.276;2022-12-18T10:15:51;12.18;;;5.18;;
18544;SDS011;9402;51.460;7.276;2022-12-18T10:18:00;11.13;;;6.45;;
18544;SDS011;9402;51.460;7.276;2022-12-18T10:20:09;8.65;;;4.95;;
18544;SDS011;9402;51.460;7.276;2022-12-18T10:22:18;9.65;;;5.18;;
18544;SDS011;9402;51.460;7.276;2022-12-18T10:24:26;12.52;;;5.50;;
18544;SDS011;9402;51.460;7.276;2022-12-18T10:26:34;9.90;;;5.30;;
18544;SDS011;9402;51.460;7.276;2022-12-18T10:28:37;6.32;;;3.90;;
18544;SDS011;9402;51.460;7.276;2022-12-18T10:30:41;6.93;;;3.10;;
18544;SDS011;9402;51.460;7.276;2022-12-18T10:32:44;4.72;;;3.08;;
18544;SDS011;9402;51.460;7.276;2022-12-18T10:34:46;6.07;;;2.17;;
18544;SDS011;9402;51.460;7.276;2022-12-18T10:36:49;4.00;;;1.90;;
18544;SDS011;9402;51.460;7.276;2022-12-18T10:38:52;3.42;;;2.28;;
18544;SDS011;9402;51.460;7.276;2022-12-18T10:40:56;5.10;;;2.97;;
18544;SDS011;9402;51.460;7.276;2022-12-18T10:43:03;3.65;;;2.17;;
18544;SDS011;9402;51.460;7.276;2022-12-18T10:45:09;10.15;;;3.50;;
18544;SDS011;9402;51.460;7.276;2022-12-18T10:47:14;7.80;;;3.13;;
18544;SDS011;9402;51.460;7.276;2022-12-18T10:49:21;13.70;;;6.93;;
18544;SDS011;9402;51.460;7.276;2022-12-18T10:51:26;11.25;;;5.35;;
18544;SDS011;9402;51.460;7.276;2022-12-18T10:53:30;4.88;;;2.97;;
18544;SDS011;9402;51.460;7.276;2022-12-18T10:55:34;10.35;;;4.63;;
18544;SDS011;9402;51.460;7.276;2022-12-18T10:57:40;11.48;;;5.80;;
18544;SDS011;9402;51.460;7.276;2022-12-18T10:59:49;13.70;;;5.60;;
18544;SDS011;9402;51.460;7.276;2022-12-18T11:01:53;10.45;;;4.38;;
18544;SDS011;9402;51.460;7.276;2022-12-18T11:04:00;6.65;;;4.15;;
18544;SDS011;9402;51.460;7.276;2022-12-18T11:06:08;14.88;;;4.60;;
18544;SDS011;9402;51.460;7.276;2022-12-18T11:08:19;9.38;;;3.50;;
18544;SDS011;9402;51.460;7.276;2022-12-18T11:10:25;6.43;;;2.55;;
18544;SDS011;9402;51.460;7.276;2022-12-18T11:12:29;9.05;;;3.70;;
18544;SDS011;9402;51.460;7.276;2022-12-18T11:14:34;4.93;;;2.13;;
18544;SDS011;9402;51.460;7.276;2022-12-18T11:16:45;10.68;;;3.65;;
18544;SDS011;9402;51.460;7.276;2022-12-18T11:18:48;7.90;;;3.95;;
18544;SDS011;9402;51.460;7.276;2022-12-18T11:20:51;6.82;;;3.30;;
18544;SDS011;9402;51.460;7.276;2022-12-18T11:22:56;14.20;;;5.32;;
18544;SDS011;9402;51.460;7.276;2022-12-18T11:25:00;15.52;;;3.70;;
18544;SDS011;9402;51.460;7.276;2022-12-18T11:27:04;4.30;;;2.20;;
18544;SDS011;9402;51.460;7.276;2022-12-18T11:29:08;7.20;;;2.35;;
18544;SDS011;9402;51.460;7.276;2022-12-18T11:31:20;7.30;;;3.03;;
18544;SDS011;9402;51.460;7.276;2022-12-18T11:33:24;23.77;;;9.30;;
18544;SDS011;9402;51.460;7.276;2022-12-18T11:35:35;29.75;;;8.60;;
18544;SDS011;9402;51.460;7.276;2022-12-18T11:37:41;26.85;;;9.95;;
18544;SDS011;9402;51.460;7.276;2022-12-18T11:39:49;27.70;;;10.32;;
18544;SDS011;9402;51.460;7.276;2022-12-18T11:41:54;22.00;;;8.80;;
18544;SDS011;9402;51.460;7.276;2022-12-18T11:44:13;23.23;;;8.38;;
18544;SDS011;9402;51.460;7.276;2022-12-18T11:46:18;21.92;;;8.70;;
18544;SDS011;9402;51.460;7.276;2022-12-18T11:48:28;29.33;;;11.15;;
18544;SDS011;9402;51.460;7.276;2022-12-18T11:50:41;19.98;;;7.30;;
18544;SDS011;9402;51.460;7.276;2022-12-18T11:52:47;15.27;;;5.70;;
18544;SDS011;9402;51.460;7.276;2022-12-18T11:54:53;15.80;;;6.38;;
18544;SDS011;9402;51.460;7.276;2022-12-18T11:56:58;15.27;;;5.93;;
18544;SDS011;9402;51.460;7.276;2022-12-18T11:59:07;17.40;;;8.57;;
18544;SDS011;9402;51.460;7.276;2022-12-18T12:01:19;22.58;;;8.23;;
18544;SDS011;9402;51.460;7.276;2022-12-18T12:06:08;13.68;;;4.72;;
18544;SDS011;9402;51.460;7.276;2022-12-18T12:08:15;11.68;;;4.93;;
18544;SDS011;9402;51.460;7.276;2022-12-18T12:10:25;20.98;;;7.30;;
18544;SDS011;9402;51.460;7.276;2022-12-18T12:12:37;12.32;;;5.30;;
18544;SDS011;9402;51.460;7.276;2022-12-18T12:14:51;5.07;;;2.85;;
18544;SDS011;9402;51.460;7.276;2022-12-18T12:16:58;11.70;;;5.88;;
18544;SDS011;9402;51.460;7.276;2022-12-18T12:19:10;13.40;;;5.50;;
18544;SDS011;9402;51.460;7.276;2022-12-18T12:21:22;17.98;;;7.38;;
18544;SDS011;9402;51.460;7.276;2022-12-18T12:23:29;13.07;;;4.10;;
18544;SDS011;9402;51.460;7.276;2022-12-18T12:25:39;5.75;;;2.33;;
18544;SDS011;9402;51.460;7.276;2022-12-18T12:27:46;5.07;;;2.15;;
18544;SDS011;9402;51.460;7.276;2022-12-18T12:29:58;4.13;;;1.58;;